Estación Meteorológica Peña el Pijo (Robertgarden) [ 05/25/18 13:00:36 CEST ]

Fecha Hora Presion(HPa) Temp (°C) Humedad % Rocio (°C) Viento ( m/s) Direccion Lluvia 1Hora(mm) Lluvia 24H(mm) LLuvia Total(mm)
2018-May-13 01:01:37 1008.000 9.8 52 0.4         215.48
2018-May-13 02:01:49 1008.100 8.8 55 0.2         215.48
2018-May-13 03:03:10 1008.200 7.9 58 0.1         215.48
2018-May-13 04:01:47 1008.400 5.3 67 -0.3         215.48
2018-May-13 05:01:48 1008.300 4.4 71 -0.4         215.48
2018-May-13 06:01:41 1008.600 3.8 73 -0.6         215.48
2018-May-13 07:01:46 1009.500 2.9 74 -1.3         215.48
2018-May-13 08:01:50 1010.000 4.4 77 0.7         215.48
2018-May-13 09:01:37 1010.300 9.6 62 2.7         215.48
2018-May-13 10:01:36 1010.700 13.5 45 1.7         215.48
2018-May-13 11:01:46 1010.700 15.4 38 1.1         215.48
2018-May-13 12:01:39 1010.600 16.4 33 -0.0         215.48
2018-May-13 13:01:38 1010.500 18.6 31 1.1         215.48
2018-May-13 14:01:36 1010.100 18.4 28 -0.6 1.3 SW     215.48
2018-May-13 15:01:33 1009.700 18.7 28 -0.3 1.7 N     215.48
2018-May-13 16:01:32 1009.500 20.7 27 0.9         215.48
2018-May-13 17:01:32 1009.200 19.8 26 -0.5         215.48
2018-May-13 18:01:51 1009.200 19.6 24 -1.8 1.6 NNW     215.48
2018-May-13 19:01:42 1009.400 17.9 27 -1.5         215.48
2018-May-13 20:01:39 1009.600 15.6 28 -3.0         215.48
2018-May-13 21:01:44 1009.900 12.6 32 -3.8         215.48
2018-May-13 22:01:42 1010.300 10.1 41 -2.6         215.48
2018-May-13 23:01:33 1011.100 7.0 54 -1.7         215.48

Temperatura Máxima:20°    Temperatura Mínima:
Presión Máxima:1011.100 Hpa    Presión Mínima:1008.000 Hpa


Volver